createdAt,value
2017-12-20T00:00:13.590Z,15.7
2017-12-20T00:01:16.146Z,15.9
2017-12-20T00:02:18.664Z,15.9
2017-12-20T00:03:21.323Z,15.9
2017-12-20T00:04:23.850Z,15.9
2017-12-20T00:05:26.385Z,15.8
2017-12-20T00:06:28.924Z,15.9
2017-12-20T00:07:31.415Z,16
2017-12-20T00:08:33.961Z,16.1
2017-12-20T00:09:36.432Z,16.1
2017-12-20T00:10:38.972Z,16.1
2017-12-20T00:11:41.838Z,16.1
2017-12-20T00:12:45.369Z,14.7
2017-12-20T00:13:47.916Z,13
2017-12-20T00:14:50.408Z,12.4
2017-12-20T00:15:53.009Z,11.8
2017-12-20T00:16:55.642Z,11.6
2017-12-20T00:17:58.149Z,11.5
2017-12-20T00:19:00.644Z,11.6
2017-12-20T00:20:03.667Z,11.3
2017-12-20T00:21:06.284Z,11
2017-12-20T00:22:08.912Z,10.9
2017-12-20T00:23:11.383Z,10.9
2017-12-20T00:24:14.020Z,10.8
2017-12-20T00:25:16.664Z,10.5
2017-12-20T00:26:19.257Z,10.5
2017-12-20T00:27:21.737Z,10.6
2017-12-20T00:28:24.312Z,10.7
2017-12-20T00:29:26.892Z,10.4
2017-12-20T00:30:29.485Z,10.1
2017-12-20T00:31:31.974Z,10.4
2017-12-20T00:32:34.588Z,10.6
2017-12-20T00:33:37.094Z,10.5
2017-12-20T00:34:39.659Z,10.2
2017-12-20T00:35:42.191Z,10
2017-12-20T00:36:44.684Z,10.1
2017-12-20T00:37:47.167Z,10.1
2017-12-20T00:38:49.780Z,10.1
2017-12-20T00:39:52.232Z,10
2017-12-20T00:40:54.789Z,9.9
2017-12-20T00:41:57.344Z,9.9
2017-12-20T00:43:00.058Z,9.8
2017-12-20T00:44:02.611Z,10.1
2017-12-20T00:45:05.090Z,10.1
2017-12-20T00:46:07.596Z,9.9
2017-12-20T00:47:10.141Z,9.8
2017-12-20T00:48:12.689Z,9.6
2017-12-20T00:49:15.253Z,9.8
2017-12-20T00:50:17.700Z,9.6
2017-12-20T00:51:20.208Z,9.7
2017-12-20T00:52:22.689Z,9.8
2017-12-20T00:53:25.242Z,9.6
2017-12-20T00:54:27.860Z,9.6
2017-12-20T00:55:30.331Z,9.5
2017-12-20T00:56:32.784Z,9.5
2017-12-20T00:57:35.370Z,9.4
2017-12-20T00:58:37.851Z,9.4
2017-12-20T00:59:40.436Z,9.3
2017-12-20T01:00:44.176Z,9.6
2017-12-20T01:01:46.721Z,9.4
2017-12-20T01:02:49.273Z,9.4
2017-12-20T01:03:51.793Z,9.5
2017-12-20T01:04:54.259Z,9.4
2017-12-20T01:05:56.705Z,9.3
2017-12-20T01:06:59.257Z,9.3
2017-12-20T01:08:01.796Z,9.3
2017-12-20T01:09:04.270Z,9.3
2017-12-20T01:10:06.799Z,9
2017-12-20T01:11:09.303Z,9
2017-12-20T01:12:11.831Z,9
2017-12-20T01:13:14.296Z,9.1
2017-12-20T01:14:16.739Z,9.1
2017-12-20T01:15:19.316Z,9
2017-12-20T01:16:21.779Z,9.1
2017-12-20T01:17:24.291Z,8.9
2017-12-20T01:19:38.438Z,9.1
2017-12-20T01:20:40.784Z,8.9
2017-12-20T01:21:43.253Z,8.8
2017-12-20T01:22:46.011Z,8.9
2017-12-20T01:23:48.585Z,8.8
2017-12-20T01:24:50.998Z,8.9
2017-12-20T01:25:53.446Z,8.9
2017-12-20T01:26:55.867Z,8.9
2017-12-20T01:27:58.317Z,8.6
2017-12-20T01:29:00.856Z,8.7
2017-12-20T01:30:03.327Z,8.6
2017-12-20T01:31:05.702Z,8.7
2017-12-20T01:32:08.156Z,8.6
2017-12-20T01:33:10.641Z,8.6
2017-12-20T01:34:13.020Z,8.7
2017-12-20T01:35:15.426Z,8.8
2017-12-20T01:36:17.782Z,8.8
2017-12-20T01:37:20.210Z,8.6
2017-12-20T01:38:26.446Z,8.7
2017-12-20T01:39:36.229Z,8.7
2017-12-20T01:40:44.209Z,8.9
2017-12-20T01:41:47.939Z,8.8
2017-12-20T01:42:50.347Z,8.7
2017-12-20T01:43:53.958Z,8.7
2017-12-20T01:44:56.426Z,8.8
2017-12-20T01:45:58.866Z,8.7
2017-12-20T01:47:01.213Z,8.6
2017-12-20T01:48:03.622Z,8.7
2017-12-20T01:49:06.173Z,8.9
2017-12-20T01:50:08.647Z,8.8
2017-12-20T01:51:11.084Z,8.8
2017-12-20T01:52:13.764Z,8.6
2017-12-20T01:53:16.170Z,8.6
2017-12-20T01:54:18.643Z,8.6
2017-12-20T01:55:21.032Z,8.7
2017-12-20T01:56:23.403Z,8.6
2017-12-20T01:57:25.774Z,8.7
2017-12-20T01:58:30.144Z,8.7
2017-12-20T01:59:32.567Z,8.8
2017-12-20T02:00:34.995Z,8.6
2017-12-20T02:01:37.401Z,8.6
2017-12-20T02:02:39.826Z,8.7
2017-12-20T02:03:42.186Z,8.5
2017-12-20T02:04:44.546Z,8.5
2017-12-20T02:05:47.032Z,8.6
2017-12-20T02:06:49.428Z,8.6
2017-12-20T02:07:51.832Z,8.6
2017-12-20T02:08:54.227Z,8.5
2017-12-20T02:09:56.622Z,8.7
2017-12-20T02:10:59.035Z,8.6
2017-12-20T02:12:01.449Z,8.7
2017-12-20T02:13:03.863Z,8.6
2017-12-20T02:14:06.296Z,8.5
2017-12-20T02:15:08.706Z,8.5
2017-12-20T02:16:11.073Z,8.6
2017-12-20T02:17:13.575Z,8.5
2017-12-20T02:18:16.046Z,8.4
2017-12-20T02:19:18.419Z,8.6
2017-12-20T02:20:20.799Z,8.4
2017-12-20T02:21:23.166Z,8.4
2017-12-20T02:22:25.564Z,8.5
2017-12-20T02:23:27.956Z,8.5
2017-12-20T02:24:30.324Z,8.5
2017-12-20T02:25:33.103Z,8.6
2017-12-20T02:26:35.525Z,8.5
2017-12-20T02:27:37.958Z,8.5
2017-12-20T02:28:40.393Z,8.5
2017-12-20T02:29:42.787Z,8.4
2017-12-20T02:30:45.216Z,8.3
2017-12-20T02:31:47.651Z,8.4
2017-12-20T02:32:50.131Z,8.4
2017-12-20T02:33:52.536Z,8.4
2017-12-20T02:34:54.918Z,8.4
2017-12-20T02:35:57.296Z,8.6
2017-12-20T02:36:59.722Z,8.5
2017-12-20T02:38:02.188Z,8.5
2017-12-20T02:39:04.694Z,8.5
2017-12-20T02:40:07.101Z,8.5
2017-12-20T02:41:09.659Z,8.5
2017-12-20T02:42:12.042Z,8.5
2017-12-20T02:43:14.496Z,8.6
2017-12-20T02:44:16.878Z,8.4
2017-12-20T02:45:19.269Z,8.4
2017-12-20T02:46:21.666Z,8.6
2017-12-20T02:47:24.072Z,8.8
2017-12-20T02:48:26.478Z,8.5
2017-12-20T02:49:28.918Z,8.7
2017-12-20T02:50:31.377Z,8.6
2017-12-20T02:51:33.788Z,8.5
2017-12-20T02:52:36.204Z,8.6
2017-12-20T02:53:38.703Z,8.5
2017-12-20T02:54:41.141Z,8.5
2017-12-20T02:55:43.479Z,8.6
2017-12-20T02:56:45.870Z,8.5
2017-12-20T02:57:48.230Z,8.4
2017-12-20T02:58:50.591Z,8.4
2017-12-20T02:59:52.970Z,8.4
2017-12-20T03:00:55.344Z,8.4
2017-12-20T03:01:57.803Z,8.3
2017-12-20T03:03:00.233Z,8.5
2017-12-20T03:04:02.630Z,8.5
2017-12-20T03:05:05.037Z,8.7
2017-12-20T03:06:07.436Z,8.5
2017-12-20T03:07:09.880Z,8.5
2017-12-20T03:08:12.318Z,8.6
2017-12-20T03:09:14.668Z,8.7
2017-12-20T03:10:17.033Z,8.6
2017-12-20T03:11:19.444Z,8.4
2017-12-20T03:12:21.896Z,8.4
2017-12-20T03:13:24.232Z,8.5
2017-12-20T03:14:26.605Z,8.5
2017-12-20T03:15:29.102Z,8.4
2017-12-20T03:16:31.486Z,8.3
2017-12-20T03:17:33.845Z,8.2
2017-12-20T03:18:36.223Z,8.3
2017-12-20T03:19:38.642Z,8.2
2017-12-20T03:20:41.088Z,8.3
2017-12-20T03:21:43.478Z,8.3
2017-12-20T03:22:45.904Z,8.3
2017-12-20T03:23:48.282Z,8.2
2017-12-20T03:24:50.686Z,8.2
2017-12-20T03:25:53.188Z,8.3
2017-12-20T03:26:55.581Z,8.3
2017-12-20T03:27:58.015Z,8.3
2017-12-20T03:29:00.469Z,8.4
2017-12-20T03:30:03.124Z,8.4
2017-12-20T03:31:05.511Z,8.4
2017-12-20T03:32:07.914Z,8.4
2017-12-20T03:33:10.785Z,8.4
2017-12-20T03:34:13.184Z,8.3
2017-12-20T03:35:15.529Z,8.4
2017-12-20T03:36:19.287Z,8.4
2017-12-20T03:37:21.748Z,8.4
2017-12-20T03:38:24.150Z,8.3
2017-12-20T03:39:26.548Z,8.6
2017-12-20T03:40:28.970Z,8.3
2017-12-20T03:41:31.811Z,8.3
2017-12-20T03:42:34.156Z,8.3
2017-12-20T03:43:36.569Z,8.3
2017-12-20T03:44:39.034Z,8.3
2017-12-20T03:45:41.423Z,8.3
2017-12-20T03:46:43.802Z,8.3
2017-12-20T03:47:46.197Z,8.2
2017-12-20T03:48:48.597Z,8.2
2017-12-20T03:49:51.101Z,8.4
2017-12-20T03:50:53.575Z,8.3
2017-12-20T03:51:55.940Z,8.4
2017-12-20T03:52:58.258Z,8.3
2017-12-20T03:54:00.704Z,8.3
2017-12-20T03:55:03.049Z,8.3
2017-12-20T03:56:05.477Z,8.2
2017-12-20T03:57:07.875Z,8.1
2017-12-20T03:58:10.319Z,8.1
2017-12-20T03:59:12.706Z,8.1
2017-12-20T04:00:15.035Z,8.1
2017-12-20T04:01:17.415Z,8.1
2017-12-20T04:02:19.811Z,7.9
2017-12-20T04:03:22.191Z,7.9
2017-12-20T04:04:24.568Z,8
2017-12-20T04:05:26.942Z,7.9
2017-12-20T04:06:29.404Z,8.1
2017-12-20T04:07:31.815Z,7.9
2017-12-20T04:08:34.201Z,8
2017-12-20T04:09:36.608Z,8.1
2017-12-20T04:10:38.996Z,8.1
2017-12-20T04:11:41.424Z,8.1
2017-12-20T04:12:43.838Z,8
2017-12-20T04:13:46.196Z,7.9
2017-12-20T04:14:48.560Z,8
2017-12-20T04:15:50.939Z,7.9
2017-12-20T04:16:53.291Z,7.9
2017-12-20T04:17:55.638Z,8
2017-12-20T04:18:58.066Z,8.1
2017-12-20T04:20:00.560Z,8.1
2017-12-20T04:21:03.339Z,8.1
2017-12-20T04:22:05.767Z,8
2017-12-20T04:23:08.175Z,7.9
2017-12-20T04:24:10.586Z,8
2017-12-20T04:25:13.009Z,8
2017-12-20T04:26:15.504Z,8
2017-12-20T04:27:17.913Z,7.8
2017-12-20T04:28:20.343Z,8.1
2017-12-20T04:29:22.777Z,7.9
2017-12-20T04:30:25.129Z,8
2017-12-20T04:31:27.522Z,7.9
2017-12-20T04:32:29.974Z,7.9
2017-12-20T04:33:32.340Z,8
2017-12-20T04:34:34.811Z,8
2017-12-20T04:35:37.277Z,8.1
2017-12-20T04:36:43.355Z,8
2017-12-20T04:37:45.811Z,7.9
2017-12-20T04:38:48.221Z,7.8
2017-12-20T04:39:50.644Z,7.9
2017-12-20T04:40:53.086Z,8
2017-12-20T04:41:55.483Z,8
2017-12-20T04:42:57.832Z,7.9
2017-12-20T04:44:00.290Z,7.9
2017-12-20T04:45:02.762Z,7.9
2017-12-20T04:46:05.199Z,8
2017-12-20T04:47:07.567Z,8.2
2017-12-20T04:48:10.084Z,8.1
2017-12-20T04:49:12.493Z,8.1
2017-12-20T04:50:14.959Z,8
2017-12-20T04:51:17.346Z,8
2017-12-20T04:52:19.752Z,8.1
2017-12-20T04:53:22.118Z,8.1
2017-12-20T04:54:24.522Z,8
2017-12-20T04:55:26.992Z,8.1
2017-12-20T04:56:29.443Z,8.1
2017-12-20T04:57:31.865Z,8.2
2017-12-20T04:58:34.236Z,8.1
2017-12-20T04:59:36.666Z,8
2017-12-20T05:00:39.093Z,8
2017-12-20T05:01:41.514Z,8
2017-12-20T05:02:43.858Z,7.9
2017-12-20T05:03:46.245Z,8
2017-12-20T05:04:48.670Z,7.9
2017-12-20T05:05:51.141Z,8
2017-12-20T05:06:53.486Z,8
2017-12-20T05:07:55.880Z,7.9
2017-12-20T05:08:58.271Z,7.9
2017-12-20T05:10:00.723Z,7.9
2017-12-20T05:11:03.144Z,7.8
2017-12-20T05:12:05.546Z,7.9
2017-12-20T05:13:08.078Z,7.9
2017-12-20T05:14:10.543Z,7.8
2017-12-20T05:15:13.042Z,7.9
2017-12-20T05:16:15.453Z,8
2017-12-20T05:17:17.887Z,7.9
2017-12-20T05:18:20.382Z,8.1
2017-12-20T05:19:22.829Z,8
2017-12-20T05:20:25.279Z,7.9
2017-12-20T05:21:27.624Z,8
2017-12-20T05:22:30.094Z,8.1
2017-12-20T05:23:32.517Z,8.2
2017-12-20T05:24:34.973Z,8.1
2017-12-20T05:25:37.378Z,7.9
2017-12-20T05:26:39.822Z,8
2017-12-20T05:27:42.239Z,8
2017-12-20T05:28:44.678Z,8
2017-12-20T05:29:47.114Z,8
2017-12-20T05:30:49.595Z,8
2017-12-20T05:31:51.988Z,8.1
2017-12-20T05:32:54.357Z,8
2017-12-20T05:33:56.800Z,7.9
2017-12-20T05:34:59.360Z,7.9
2017-12-20T05:36:01.758Z,8.2
2017-12-20T05:37:04.187Z,8.1
2017-12-20T05:38:06.680Z,8.1
2017-12-20T05:39:09.093Z,8.1
2017-12-20T05:40:11.527Z,8
2017-12-20T05:41:21.297Z,8
2017-12-20T05:42:24.929Z,8.1
2017-12-20T05:43:27.295Z,8.1
2017-12-20T05:44:29.809Z,8.2
2017-12-20T05:45:32.247Z,8.2
2017-12-20T05:46:34.651Z,8.1
2017-12-20T05:47:37.102Z,8.2
2017-12-20T05:48:39.634Z,8
2017-12-20T05:49:45.346Z,7.9
2017-12-20T05:50:47.802Z,8
2017-12-20T05:51:52.447Z,7.9
2017-12-20T05:52:54.820Z,8
2017-12-20T05:53:57.270Z,8
2017-12-20T05:54:59.700Z,8.1
2017-12-20T05:56:02.159Z,8
2017-12-20T05:57:04.574Z,8
2017-12-20T05:58:06.966Z,7.9
2017-12-20T05:59:09.427Z,7.8
2017-12-20T06:00:12.301Z,7.9
2017-12-20T06:01:14.721Z,7.9
2017-12-20T06:02:21.542Z,7.9
2017-12-20T06:03:23.936Z,7.9
2017-12-20T06:04:26.370Z,7.9
2017-12-20T06:05:28.807Z,7.9
2017-12-20T06:06:31.229Z,7.8
2017-12-20T06:07:33.676Z,7.8
2017-12-20T06:08:36.145Z,7.8
2017-12-20T06:09:38.550Z,7.7
2017-12-20T06:10:41.014Z,7.8
2017-12-20T06:11:43.406Z,7.9
2017-12-20T06:12:45.904Z,7.9
2017-12-20T06:13:48.343Z,7.7
2017-12-20T06:14:50.861Z,8
2017-12-20T06:15:53.451Z,8
2017-12-20T06:16:55.910Z,7.9
2017-12-20T06:17:58.354Z,7.8
2017-12-20T06:19:00.945Z,7.9
2017-12-20T06:20:03.778Z,7.9
2017-12-20T06:21:06.213Z,7.8
2017-12-20T06:22:08.600Z,7.9
2017-12-20T06:23:11.216Z,8
2017-12-20T06:24:13.701Z,7.8
2017-12-20T06:25:16.183Z,7.9
2017-12-20T06:26:18.611Z,8
2017-12-20T06:27:21.072Z,7.9
2017-12-20T06:28:23.499Z,7.9
2017-12-20T06:29:26.032Z,7.9
2017-12-20T06:30:28.434Z,7.9
2017-12-20T06:31:30.952Z,7.9
2017-12-20T06:32:33.450Z,8
2017-12-20T06:33:35.906Z,8
2017-12-20T06:34:38.335Z,7.9
2017-12-20T06:35:40.863Z,7.9
2017-12-20T06:36:43.278Z,7.9
2017-12-20T06:37:46.140Z,7.8
2017-12-20T06:38:48.723Z,7.8
2017-12-20T06:39:51.320Z,7.6
2017-12-20T06:40:53.815Z,7.8
2017-12-20T06:41:56.268Z,7.9
2017-12-20T06:42:58.816Z,7.9
2017-12-20T06:44:01.326Z,7.9
2017-12-20T06:45:03.993Z,8.1
2017-12-20T06:46:06.561Z,7.8
2017-12-20T06:47:09.011Z,7.9
2017-12-20T06:48:11.463Z,7.9
2017-12-20T06:49:14.037Z,7.8
2017-12-20T06:50:16.535Z,7.8
2017-12-20T06:51:19.648Z,7.7
2017-12-20T06:52:22.003Z,7.7
2017-12-20T06:53:29.734Z,7.9
2017-12-20T06:54:39.650Z,7.9
2017-12-20T06:55:42.109Z,8
2017-12-20T06:56:44.570Z,7.9
2017-12-20T06:57:47.151Z,7.8
2017-12-20T06:58:49.684Z,7.9
2017-12-20T06:59:52.165Z,7.9
2017-12-20T07:00:54.595Z,7.8
2017-12-20T07:01:57.045Z,8.1
2017-12-20T07:02:59.574Z,8
2017-12-20T07:04:02.023Z,8.1
2017-12-20T07:05:04.512Z,8
2017-12-20T07:06:06.975Z,7.9
2017-12-20T07:07:09.926Z,8.1
2017-12-20T07:08:12.338Z,8.1
2017-12-20T07:09:14.720Z,8
2017-12-20T07:10:17.123Z,8.3
2017-12-20T07:11:19.527Z,8
2017-12-20T07:12:21.975Z,8.1
2017-12-20T07:13:24.449Z,8.1
2017-12-20T07:14:26.899Z,8.1
2017-12-20T07:15:29.322Z,8
2017-12-20T07:16:31.884Z,8
2017-12-20T07:17:34.434Z,8.9
2017-12-20T07:18:37.004Z,9.8
2017-12-20T07:19:39.458Z,10.8
2017-12-20T07:20:41.916Z,11.1
2017-12-20T07:21:44.319Z,11.6
2017-12-20T07:22:46.820Z,11.9
2017-12-20T07:23:49.355Z,11.8
2017-12-20T07:24:51.919Z,11.9
2017-12-20T07:25:54.423Z,12
2017-12-20T07:26:56.850Z,12.2
2017-12-20T07:27:59.322Z,12.4
2017-12-20T07:29:02.179Z,12.6
2017-12-20T07:30:04.694Z,12.7
2017-12-20T07:31:08.588Z,12.7
2017-12-20T07:32:11.036Z,12.8
2017-12-20T07:33:13.475Z,12.8
2017-12-20T07:34:15.880Z,12.9
2017-12-20T07:35:18.621Z,13
2017-12-20T07:36:21.483Z,13
2017-12-20T07:37:24.004Z,13.2
2017-12-20T07:38:27.372Z,13.2
2017-12-20T07:39:30.547Z,13.2
2017-12-20T07:40:33.393Z,13.2
2017-12-20T07:41:36.031Z,13.3
2017-12-20T07:42:38.521Z,13.8
2017-12-20T07:43:41.087Z,14
2017-12-20T07:44:43.676Z,14.1
2017-12-20T07:45:46.538Z,14.3
2017-12-20T07:46:49.399Z,14.4
2017-12-20T07:47:53.398Z,14.4
2017-12-20T07:48:56.216Z,14.6
2017-12-20T07:50:05.357Z,14.7
2017-12-20T07:51:08.137Z,14.9
2017-12-20T07:52:10.857Z,15.1
2017-12-20T07:53:13.990Z,15.2
2017-12-20T07:54:17.044Z,15.4
2017-12-20T07:55:19.922Z,15.4
2017-12-20T07:56:22.542Z,15.5
2017-12-20T07:57:25.291Z,15.6
2017-12-20T07:58:27.946Z,15.5
2017-12-20T07:59:31.297Z,15.5
2017-12-20T08:00:34.209Z,15.6
2017-12-20T08:01:36.711Z,15.8
2017-12-20T08:02:39.259Z,16
2017-12-20T08:03:41.845Z,15.9
2017-12-20T08:04:44.314Z,16.1
2017-12-20T08:05:47.701Z,16.2
2017-12-20T08:06:50.221Z,16.2
2017-12-20T08:07:52.656Z,16.2
2017-12-20T08:08:55.162Z,16.1
2017-12-20T08:09:57.682Z,16.3
2017-12-20T08:11:00.213Z,16.3
2017-12-20T08:12:03.436Z,16.4
2017-12-20T08:13:06.096Z,16.4
2017-12-20T08:14:08.598Z,16.5
2017-12-20T08:15:11.121Z,16.7
2017-12-20T08:17:22.195Z,16.9
2017-12-20T08:18:24.871Z,16.8
2017-12-20T08:19:27.451Z,16.6
2017-12-20T08:20:29.987Z,16.7
2017-12-20T08:21:32.535Z,16.7
2017-12-20T08:22:35.159Z,16.8
2017-12-20T08:23:37.741Z,16.6
2017-12-20T08:24:40.371Z,16.6
2017-12-20T08:25:42.994Z,16.7
2017-12-20T08:26:45.556Z,16.7
2017-12-20T08:27:48.128Z,16.5
2017-12-20T08:28:50.773Z,16.4
2017-12-20T08:29:53.333Z,16.4
2017-12-20T08:30:55.877Z,16.5
2017-12-20T08:31:58.478Z,16.4
2017-12-20T08:33:01.334Z,16.4
2017-12-20T08:34:04.816Z,16.4
2017-12-20T08:35:07.370Z,16.2
2017-12-20T08:36:10.691Z,16.3
2017-12-20T08:37:13.239Z,16.3
2017-12-20T08:38:16.118Z,16.2
2017-12-20T08:39:18.600Z,16.3
2017-12-20T08:40:21.338Z,16.2
2017-12-20T08:41:27.403Z,16.2
2017-12-20T08:42:30.297Z,16.1
2017-12-20T08:43:32.794Z,16.2
2017-12-20T08:44:35.269Z,16
2017-12-20T08:45:37.882Z,16.1
2017-12-20T08:46:45.866Z,16.1
2017-12-20T08:47:48.434Z,16
2017-12-20T08:48:50.949Z,15.9
2017-12-20T08:49:53.348Z,15.9
2017-12-20T08:50:55.878Z,16
2017-12-20T08:51:58.399Z,15.9
2017-12-20T08:53:01.041Z,15.9
2017-12-20T08:54:03.850Z,15.9
2017-12-20T08:55:06.320Z,15.8
2017-12-20T08:56:08.802Z,15.8
2017-12-20T08:57:11.761Z,15.7
2017-12-20T08:58:14.257Z,15.9
2017-12-20T08:59:16.777Z,15.9
2017-12-20T09:00:19.302Z,15.9
2017-12-20T09:01:22.025Z,15.9
2017-12-20T09:02:24.578Z,16
2017-12-20T09:03:27.125Z,16.1
2017-12-20T09:04:29.718Z,16
2017-12-20T09:05:32.359Z,16
2017-12-20T09:06:38.469Z,16
2017-12-20T09:07:44.653Z,15.9
2017-12-20T09:08:47.111Z,15.9
2017-12-20T09:09:49.593Z,15.9
2017-12-20T09:10:52.236Z,15.9
2017-12-20T09:11:54.702Z,15.9
2017-12-20T09:12:57.252Z,15.9
2017-12-20T09:13:59.721Z,15.8
2017-12-20T09:15:02.339Z,15.8
2017-12-20T09:16:05.000Z,15.8
2017-12-20T09:17:07.473Z,15.8
2017-12-20T09:18:10.036Z,15.9
2017-12-20T09:19:12.624Z,15.9
2017-12-20T09:20:15.163Z,15.9
2017-12-20T09:21:17.708Z,15.8
2017-12-20T09:22:20.238Z,15.9
2017-12-20T09:23:22.806Z,15.9
2017-12-20T09:24:25.267Z,15.7
2017-12-20T09:25:27.691Z,15.9
2017-12-20T09:26:30.339Z,15.9
2017-12-20T09:27:32.878Z,15.9
2017-12-20T09:28:35.438Z,15.9
2017-12-20T09:29:38.019Z,15.8
2017-12-20T09:30:40.562Z,15.8
2017-12-20T09:31:43.234Z,15.9
2017-12-20T09:32:45.681Z,16
2017-12-20T09:33:48.168Z,16
2017-12-20T09:34:50.923Z,16
2017-12-20T09:35:53.420Z,16.1
2017-12-20T09:36:56.020Z,16.1
2017-12-20T09:37:58.470Z,16.1
2017-12-20T09:39:01.109Z,16.1
2017-12-20T09:40:03.700Z,16
2017-12-20T09:41:06.271Z,16
2017-12-20T09:42:08.786Z,15.9
2017-12-20T09:43:11.479Z,16
2017-12-20T09:44:14.060Z,16
2017-12-20T09:45:16.609Z,15.8
2017-12-20T09:46:19.129Z,16
2017-12-20T09:47:22.325Z,15.9
2017-12-20T09:48:24.830Z,16
2017-12-20T09:49:27.282Z,16
2017-12-20T09:50:29.757Z,16
2017-12-20T09:51:34.479Z,16.1
2017-12-20T09:52:36.969Z,16
2017-12-20T09:53:39.446Z,16
2017-12-20T09:54:42.446Z,15.9
2017-12-20T09:55:45.359Z,16.1
2017-12-20T09:56:48.634Z,16.1
2017-12-20T09:57:51.316Z,16.1
2017-12-20T09:58:53.884Z,16
2017-12-20T09:59:56.407Z,16.1
2017-12-20T10:01:04.389Z,16.1
2017-12-20T10:03:51.023Z,16.2
2017-12-20T10:04:57.791Z,16.2
2017-12-20T10:06:05.682Z,16.2
2017-12-20T10:07:14.298Z,16.2
2017-12-20T10:08:21.752Z,16.2
2017-12-20T10:09:24.675Z,16.2
2017-12-20T10:10:33.263Z,16.2
2017-12-20T10:11:35.915Z,16.3
2017-12-20T10:12:38.448Z,16.3
2017-12-20T10:13:41.216Z,16.2
2017-12-20T10:14:46.131Z,16.2
2017-12-20T10:15:49.472Z,16.2
2017-12-20T10:16:52.317Z,16.2
2017-12-20T10:17:55.323Z,16.2
2017-12-20T10:19:00.958Z,16.2
2017-12-20T10:20:03.795Z,16.2
2017-12-20T10:21:06.280Z,16.1
2017-12-20T10:22:08.865Z,16.3
2017-12-20T10:23:11.366Z,16.3
2017-12-20T10:24:13.885Z,16.3
2017-12-20T10:25:16.532Z,16.2
2017-12-20T10:26:22.450Z,16.2
2017-12-20T10:27:25.093Z,16.2
2017-12-20T10:28:27.680Z,16.3
2017-12-20T10:29:30.602Z,16.3
2017-12-20T10:30:33.175Z,16.3
2017-12-20T10:31:35.861Z,16.3
2017-12-20T10:32:38.370Z,16.3
2017-12-20T10:33:41.081Z,16.3
2017-12-20T10:34:43.768Z,16.3
2017-12-20T10:35:46.324Z,16.3
2017-12-20T10:36:48.798Z,16.3
2017-12-20T10:37:51.415Z,16.3
2017-12-20T10:38:54.015Z,16.2
2017-12-20T10:39:57.332Z,16.3
2017-12-20T10:41:00.127Z,16.3
2017-12-20T10:42:02.732Z,16.3
2017-12-20T10:43:05.235Z,16.3
2017-12-20T10:44:07.843Z,16.3
2017-12-20T10:45:10.425Z,16.4
2017-12-20T10:46:13.127Z,16.4
2017-12-20T10:47:15.640Z,16.4
2017-12-20T10:48:18.115Z,16.4
2017-12-20T10:49:20.723Z,16.5
2017-12-20T10:50:23.250Z,16.3
2017-12-20T10:51:25.875Z,16.4
2017-12-20T10:52:29.258Z,16.4
2017-12-20T10:53:32.041Z,16.4
2017-12-20T10:54:35.114Z,16.5
2017-12-20T10:55:38.007Z,16.4
2017-12-20T10:56:40.481Z,16.4
2017-12-20T10:57:43.150Z,16.5
2017-12-20T10:58:45.871Z,16.6
2017-12-20T10:59:48.777Z,16.5
2017-12-20T11:00:51.571Z,16.5
2017-12-20T11:01:54.001Z,16.5
2017-12-20T11:02:58.422Z,16.6
2017-12-20T11:04:01.246Z,16.6
2017-12-20T11:05:04.127Z,16.5
2017-12-20T11:06:06.791Z,16.5
2017-12-20T11:07:09.269Z,16.6
2017-12-20T11:08:11.979Z,16.6
2017-12-20T11:09:14.512Z,16.6
2017-12-20T11:10:17.041Z,16.5
2017-12-20T11:11:19.521Z,16.5
2017-12-20T11:12:22.076Z,16.6
2017-12-20T11:13:24.559Z,16.6
2017-12-20T11:14:27.173Z,16.6
2017-12-20T11:15:29.702Z,16.7
2017-12-20T11:16:32.385Z,16.6
2017-12-20T11:17:34.971Z,16.6
2017-12-20T11:18:37.668Z,16.8
2017-12-20T11:19:41.078Z,16.7
2017-12-20T11:20:43.641Z,16.7
2017-12-20T11:21:46.335Z,16.7
2017-12-20T11:22:49.055Z,16.6
2017-12-20T11:23:51.684Z,16.7
2017-12-20T11:24:54.252Z,16.8
2017-12-20T11:25:56.881Z,16.9
2017-12-20T11:26:59.639Z,16.9
2017-12-20T11:28:02.548Z,16.9
2017-12-20T11:29:05.293Z,16.8
2017-12-20T11:30:07.756Z,16.6
2017-12-20T11:31:10.291Z,16.8
2017-12-20T11:32:12.954Z,16.9
2017-12-20T11:33:15.494Z,16.9
2017-12-20T11:34:18.117Z,16.8
2017-12-20T11:35:20.817Z,17
2017-12-20T11:36:23.568Z,17
2017-12-20T11:37:26.110Z,17.1
2017-12-20T11:38:28.817Z,17
2017-12-20T11:39:31.610Z,17
2017-12-20T11:40:34.206Z,16.9
2017-12-20T11:41:36.862Z,16.9
2017-12-20T11:42:39.392Z,17
2017-12-20T11:43:42.114Z,16.9
2017-12-20T11:44:44.798Z,17
2017-12-20T11:45:47.278Z,17
2017-12-20T11:46:49.780Z,16.9
2017-12-20T11:47:52.557Z,17
2017-12-20T11:48:55.098Z,16.9
2017-12-20T11:49:57.809Z,16.9
2017-12-20T11:51:00.428Z,17
2017-12-20T11:52:02.979Z,17
2017-12-20T11:53:05.638Z,16.8
2017-12-20T11:54:08.252Z,17
2017-12-20T11:55:11.051Z,17
2017-12-20T11:56:13.836Z,17
2017-12-20T11:57:16.500Z,17
2017-12-20T11:58:19.082Z,17
2017-12-20T11:59:24.932Z,17
2017-12-20T12:00:27.622Z,17
2017-12-20T12:01:31.517Z,16.9
2017-12-20T12:02:34.242Z,17
2017-12-20T12:03:36.923Z,17
2017-12-20T12:04:40.084Z,17.1
2017-12-20T12:05:42.894Z,17.1
2017-12-20T12:06:45.588Z,17
2017-12-20T12:07:48.260Z,17
2017-12-20T12:08:51.330Z,17.1
2017-12-20T12:09:53.890Z,17.1
2017-12-20T12:10:56.590Z,17.2
2017-12-20T12:11:59.181Z,17.1
2017-12-20T12:13:01.868Z,17.1
2017-12-20T12:14:04.521Z,17
2017-12-20T12:15:07.446Z,17.2
2017-12-20T12:16:15.181Z,17.3
2017-12-20T12:17:21.565Z,17.3
2017-12-20T12:18:24.102Z,17.2
2017-12-20T12:19:26.662Z,17.1
2017-12-20T12:20:29.361Z,17.1
2017-12-20T12:21:32.378Z,17
2017-12-20T12:23:42.995Z,17.1
2017-12-20T12:24:45.550Z,17.1
2017-12-20T12:25:48.075Z,17.2
2017-12-20T12:26:50.610Z,17.1
2017-12-20T12:27:53.226Z,17.2
2017-12-20T12:28:55.753Z,17.2
2017-12-20T12:29:58.549Z,17.1
2017-12-20T12:31:01.309Z,17.1
2017-12-20T12:32:04.249Z,17.1
2017-12-20T12:33:06.958Z,17.2
2017-12-20T12:34:09.455Z,17.2
2017-12-20T12:35:17.026Z,17.1
2017-12-20T12:37:29.726Z,17.1
2017-12-20T12:39:43.874Z,17.1
2017-12-20T12:40:46.465Z,17.2
2017-12-20T12:41:49.099Z,17
2017-12-20T12:42:51.731Z,17.2
2017-12-20T12:43:54.250Z,17.1
2017-12-20T12:44:56.850Z,17.2
2017-12-20T12:45:59.329Z,17.1
2017-12-20T12:47:01.911Z,17.1
2017-12-20T12:48:04.431Z,16.9
2017-12-20T12:49:06.894Z,17.2
2017-12-20T12:50:10.083Z,17.2
2017-12-20T12:51:12.707Z,17
2017-12-20T12:52:15.284Z,17
2017-12-20T12:53:18.129Z,17
2017-12-20T12:54:20.722Z,17
2017-12-20T12:55:23.363Z,17
2017-12-20T12:56:25.962Z,17.1
2017-12-20T12:57:28.564Z,17
2017-12-20T12:58:31.168Z,17
2017-12-20T12:59:33.641Z,17
2017-12-20T13:00:36.570Z,16.9
2017-12-20T13:01:39.347Z,17.2
2017-12-20T13:03:52.362Z,17.1
2017-12-20T13:04:55.039Z,17.1
2017-12-20T13:05:57.844Z,17
2017-12-20T13:07:00.630Z,17
2017-12-20T13:08:03.254Z,17
2017-12-20T13:09:05.970Z,17
2017-12-20T13:10:13.395Z,17
2017-12-20T13:11:22.810Z,17.1
2017-12-20T13:12:25.461Z,17.1
2017-12-20T13:13:41.644Z,17.1
2017-12-20T13:14:44.561Z,17.2
2017-12-20T13:15:47.235Z,17.3
2017-12-20T13:16:49.792Z,17.2
2017-12-20T13:17:52.442Z,17.2
2017-12-20T13:20:03.479Z,17.3
2017-12-20T13:21:06.030Z,17.4
2017-12-20T13:22:08.719Z,17.2
2017-12-20T13:23:11.310Z,17.2
2017-12-20T13:24:13.968Z,17.1
2017-12-20T13:25:22.489Z,17.1
2017-12-20T13:26:24.972Z,17.2
2017-12-20T13:27:27.455Z,17.2
2017-12-20T13:28:30.016Z,17.3
2017-12-20T13:29:32.997Z,17.3
2017-12-20T13:30:37.441Z,17.1
2017-12-20T13:31:40.892Z,17.3
2017-12-20T13:32:44.968Z,17.4
2017-12-20T13:33:48.128Z,17.3
2017-12-20T13:34:51.710Z,17.2
2017-12-20T13:35:58.861Z,17.2
2017-12-20T13:37:02.929Z,17.2
2017-12-20T13:38:08.809Z,17.3
2017-12-20T13:39:11.623Z,17.3
2017-12-20T13:40:15.278Z,17.2
2017-12-20T13:41:22.929Z,17.2
2017-12-20T13:42:26.540Z,17.2
2017-12-20T13:43:29.730Z,17.2
2017-12-20T13:44:33.152Z,17.2
2017-12-20T13:45:35.750Z,17.2
2017-12-20T13:46:38.441Z,17.2
2017-12-20T13:47:41.085Z,17.2
2017-12-20T13:48:43.725Z,17.2
2017-12-20T13:49:46.340Z,17.2
2017-12-20T13:50:48.940Z,17.2
2017-12-20T13:51:54.063Z,17.2
2017-12-20T13:52:56.663Z,17.2
2017-12-20T13:53:59.420Z,17.2
2017-12-20T13:55:02.599Z,17.1
2017-12-20T13:56:05.485Z,17.2
2017-12-20T13:57:08.131Z,17.1
2017-12-20T13:58:10.704Z,17.2
2017-12-20T13:59:13.381Z,17.2
2017-12-20T14:00:15.897Z,17.3
2017-12-20T14:01:24.951Z,17.3
2017-12-20T14:02:27.716Z,17.2
2017-12-20T14:03:31.312Z,17.2
2017-12-20T14:04:45.187Z,17.1
2017-12-20T14:05:47.733Z,17.2
2017-12-20T14:06:50.259Z,17.2
2017-12-20T14:07:52.786Z,17.2
2017-12-20T14:08:55.314Z,17.2
2017-12-20T14:09:57.920Z,17.1
2017-12-20T14:11:00.520Z,17.1
2017-12-20T14:12:03.134Z,17
2017-12-20T14:13:05.683Z,17
2017-12-20T14:14:08.262Z,17
2017-12-20T14:15:10.778Z,17.1
2017-12-20T14:16:13.446Z,17
2017-12-20T14:17:21.480Z,17
2017-12-20T14:18:24.354Z,17.2
2017-12-20T14:19:26.898Z,17.2
2017-12-20T14:20:30.243Z,17.3
2017-12-20T14:21:32.943Z,17.4
2017-12-20T14:22:35.493Z,17.2
2017-12-20T14:23:38.030Z,17.1
2017-12-20T14:24:40.696Z,17.2
2017-12-20T14:25:43.241Z,17.2
2017-12-20T14:26:45.746Z,17.1
2017-12-20T14:27:48.246Z,17.2